Carbondale, CO (81623)

9:55 AM MDT on September 02, 2014 (GMT -0600)
Sunlight Mountain | Change Station
CLOSE
Current Station
Airport
Location: Sunlight Mountain,
Elevation: 10604 ft
Nearby Weather Stations

Elev 10604 ft 39.43 °N, 107.38 °W | Updated 17 minutes ago

Clear
Clear
55 °F
Feels Like 55 °F
N
0
Wind Variable Wind from North

Today
High -- | Low -- °F
--% Chance of Precip.
Yesterday
High -- | Low -- °F
Precip. -- in
6:38 AM 7:37 PM
First Quarter, 52% visible
Pressure 30.51 in
Visibility 10.0 miles
Clouds Clear
Dew Point 32 °F
Humidity 41%
Rainfall 0.00 in
Snow Depth 2 in , 0 in , 1 in
UV 4 out of 12
Pollen 9.20 out of 12
Air Quality Not available.
Flu Activity Not available.
METAR K5SM 021538Z AUTO 00000KT 10SM CLR 13/00 A3051 RMK AO2

More Conditions Fewer Conditions

Pressure 30.51 in
Visibility 10.0 miles
Clouds Clear
Dew Point 32 °F
Humidity 41%
Rainfall 0.00 in
Snow Depth 2 in , 0 in , 1 in
UV 4 out of 12
Pollen 9.20 out of 12
Air Quality Not available.
Flu Activity Not available.
METAR K5SM 021538Z AUTO 00000KT 10SM CLR 13/00 A3051 RMK AO2

More Conditions Fewer Conditions

10-Day Weather Forecast

Almanac

Astronomy

Sep. 02, 2014 Rise Set
Actual Time 6:38 AM MDT 7:37 PM MDT
Civil Twilight 6:10 AM MDT 8:05 PM MDT
Nautical Twilight 5:38 AM MDT 8:37 PM MDT
Astronomical Twilight 5:04 AM MDT 9:11 PM MDT
Moon 2:22 PM MDT No Moon Set
Length of Visible Light 13h 54m
Length of Day
12h 59m
Tomorrow will be 2m 27s shorter.
First Quarter, 52% of the Moon is Illuminated
Today
First Quarter
Sep 8
Full
Sep 15
Last Quarter
Sep 24
New
Oct 1
First Quarter

Today's Extremes

State Highs State Lows

Community

WunderPhotos

Upload Photos

1,749,705 photos uploaded!

Nearby

Snow Depth

Station Depth Elevation
McClure Pass 2 in 9500 ft
North Lost Trail 0 in 9200 ft
Schofield Pass 1 in 10700 ft
Overland Reservoir 0 in 9880 ft
Kiln 1 in 9600 ft

Earthquake Activity

City Distance Mag. Time & Date
No recent earthquake activity has been reported nearby.
Minimum magnitude displayed is 2.5.

Coastal Water Temperatures

Place Temperature
No Stations Reporting

Nearby Weather Stations